Silbia Y Beni — EA7451 — position and weather

sailwx.info

Track history (hours):
 
Tides and Currents Weather Stations Pressure Air Temp Water Temp Dewpoint Dewpoint Depression Visibility Wind Speed Wind Dir Waves Ship Positions

Silbia Y Beni

Last reported at 2018-Jan-12 14:29 UTC. Time now 2018-Jan-18 00:17 UTC.
Position N 41°13' E 001°44'.

Length 18 m.

Type: Fishing. MMSI: 224123580.

Date/timePositionNaut miles runAvg speedWind from/ knotsBaromVisibWave heightAir tempDewpointWater temp
2018-Jan-12 14:29N 41°13' E 001°44'5 6.4
2018-Jan-12 13:44N 41°08' E 001°44'0 1.4
2018-Jan-12 13:29N 41°08' E 001°45'2 3.0
2018-Jan-12 12:58N 41°08' E 001°47'1 1.4
2018-Jan-12 12:25N 41°08' E 001°48'1 3.0
2018-Jan-12 11:59N 41°08' E 001°46'2 3.2
2018-Jan-12 11:28N 41°08' E 001°44'2 3.0
2018-Jan-12 10:58N 41°08' E 001°46'1 2.9
2018-Jan-12 10:28N 41°08' E 001°48'2 3.0
2018-Jan-12 09:53N 41°08' E 001°50'1 1.9
2018-Jan-12 09:22N 41°08' E 001°49'2 0.6
2018-Jan-12 06:06N 41°09' E 001°47'111.0
2018-Jan-12 06:00N 41°10' E 001°46'3 5.9
2018-Jan-12 05:28N 41°13' E 001°44'0 0.0
2018-Jan-11 11:04N 41°13' E 001°44'0 5.3
2018-Jan-11 11:00N 41°13' E 001°44'3 6.8
2018-Jan-11 10:29N 41°10' E 001°46'2 3.9
2018-Jan-11 09:54N 41°08' E 001°48'1 1.8
2018-Jan-11 09:21N 41°08' E 001°49'2 0.7
2018-Jan-11 06:04N 41°10' E 001°47'111.3
2018-Jan-11 06:00N 41°10' E 001°46'3 0.2
2018-Jan-10 14:14N 41°13' E 001°44'1 4.4
2018-Jan-10 14:00N 41°12' E 001°44'5 9.2
2018-Jan-10 13:25N 41°08' E 001°49'0 0.1
2018-Jan-10 10:03N 41°08' E 001°49'0 2.5
2018-Jan-10 09:51N 41°08' E 001°48'0 0.8
2018-Jan-10 09:28N 41°08' E 001°49'0 0.1
2018-Jan-10 06:28N 41°08' E 001°49'3 6.0
2018-Jan-10 06:00N 41°10' E 001°46'3 0.2
2018-Jan-09 13:20N 41°12' E 001°44'3 9.4
2018-Jan-09 12:59N 41°10' E 001°46'3 4.9
2018-Jan-09 12:19N 41°07' E 001°49'1 2.9
2018-Jan-09 11:54N 41°07' E 001°47'1 3.0
2018-Jan-09 11:28N 41°07' E 001°46'0 0.8
2018-Jan-09 10:58N 41°07' E 001°45'3 2.4
2018-Jan-09 09:47N 41°07' E 001°49'1 2.6
2018-Jan-09 09:23N 41°08' E 001°50'3 1.0
2018-Jan-09 06:07N 41°11' E 001°49'110.9
2018-Jan-09 05:59N 41°12' E 001°47'3 5.3
2018-Jan-09 05:28N 41°13' E 001°44'0 0.0
2018-Jan-08 14:54N 41°13' E 001°44'0 1.1
2018-Jan-08 14:30N 41°13' E 001°44'6 1.5
2018-Jan-08 10:41N 41°08' E 001°49'0 0.8
2018-Jan-08 10:13N 41°09' E 001°49'1 0.5
2018-Jan-08 07:43N 41°10' E 001°50'1 3.0
2018-Jan-08 07:30N 41°10' E 001°49'2 3.0
2018-Jan-08 07:00N 41°09' E 001°47'1 2.9
2018-Jan-08 06:30N 41°09' E 001°45'1 2.8
2018-Jan-08 06:00N 41°09' E 001°43'  
2018-Jan-03 13:13N 41°13' E 001°44'0 0.0
2018-Jan-03 12:58N 41°13' E 001°44'0 0.0
2018-Jan-03 12:30N 41°13' E 001°44'3 4.9
2018-Jan-03 11:54N 41°10' E 001°45'2 2.1
2018-Jan-03 11:11N 41°09' E 001°46'1 2.9
2018-Jan-03 11:00N 41°09' E 001°46'1 2.9
2018-Jan-03 10:30N 41°09' E 001°48'2 2.9
2018-Jan-03 09:56N 41°09' E 001°50'3 0.7
2018-Jan-03 06:05N 41°11' E 001°49'211.4
2018-Jan-03 05:57N 41°12' E 001°47'3 4.0
2018-Jan-03 05:19N 41°13' E 001°44'  
Track history (hours):
 
Tides and Currents Weather Stations Pressure Air Temp Water Temp Dewpoint Dewpoint Depression Visibility Wind Speed Wind Dir Waves Ship Positions

Silbia Y Beni

Last reported at 2018-Jan-12 14:29 UTC. Time now 2018-Jan-18 00:17 UTC.
Position N 41°13' E 001°44'.

Length 18 m.

Type: Fishing. MMSI: 224123580.

Date/timePositionNaut miles runAvg speedWind from/ knotsBaromVisibWave heightAir tempDewpointWater temp
2018-Jan-12 14:29N 41°13' E 001°44'5 6.4
2018-Jan-12 13:44N 41°08' E 001°44'0 1.4
2018-Jan-12 13:29N 41°08' E 001°45'2 3.0
2018-Jan-12 12:58N 41°08' E 001°47'1 1.4
2018-Jan-12 12:25N 41°08' E 001°48'1 3.0
2018-Jan-12 11:59N 41°08' E 001°46'2 3.2
2018-Jan-12 11:28N 41°08' E 001°44'2 3.0
2018-Jan-12 10:58N 41°08' E 001°46'1 2.9
2018-Jan-12 10:28N 41°08' E 001°48'2 3.0
2018-Jan-12 09:53N 41°08' E 001°50'1 1.9
2018-Jan-12 09:22N 41°08' E 001°49'2 0.6
2018-Jan-12 06:06N 41°09' E 001°47'111.0
2018-Jan-12 06:00N 41°10' E 001°46'3 5.9
2018-Jan-12 05:28N 41°13' E 001°44'0 0.0
2018-Jan-11 11:04N 41°13' E 001°44'0 5.3
2018-Jan-11 11:00N 41°13' E 001°44'3 6.8
2018-Jan-11 10:29N 41°10' E 001°46'2 3.9
2018-Jan-11 09:54N 41°08' E 001°48'1 1.8
2018-Jan-11 09:21N 41°08' E 001°49'2 0.7
2018-Jan-11 06:04N 41°10' E 001°47'111.3
2018-Jan-11 06:00N 41°10' E 001°46'3 0.2
2018-Jan-10 14:14N 41°13' E 001°44'1 4.4
2018-Jan-10 14:00N 41°12' E 001°44'5 9.2
2018-Jan-10 13:25N 41°08' E 001°49'0 0.1
2018-Jan-10 10:03N 41°08' E 001°49'0 2.5
2018-Jan-10 09:51N 41°08' E 001°48'0 0.8
2018-Jan-10 09:28N 41°08' E 001°49'0 0.1
2018-Jan-10 06:28N 41°08' E 001°49'3 6.0
2018-Jan-10 06:00N 41°10' E 001°46'3 0.2
2018-Jan-09 13:20N 41°12' E 001°44'3 9.4
2018-Jan-09 12:59N 41°10' E 001°46'3 4.9
2018-Jan-09 12:19N 41°07' E 001°49'1 2.9
2018-Jan-09 11:54N 41°07' E 001°47'1 3.0
2018-Jan-09 11:28N 41°07' E 001°46'0 0.8
2018-Jan-09 10:58N 41°07' E 001°45'3 2.4
2018-Jan-09 09:47N 41°07' E 001°49'1 2.6
2018-Jan-09 09:23N 41°08' E 001°50'3 1.0
2018-Jan-09 06:07N 41°11' E 001°49'110.9
2018-Jan-09 05:59N 41°12' E 001°47'3 5.3
2018-Jan-09 05:28N 41°13' E 001°44'0 0.0
2018-Jan-08 14:54N 41°13' E 001°44'0 1.1
2018-Jan-08 14:30N 41°13' E 001°44'6 1.5
2018-Jan-08 10:41N 41°08' E 001°49'0 0.8
2018-Jan-08 10:13N 41°09' E 001°49'1 0.5
2018-Jan-08 07:43N 41°10' E 001°50'1 3.0
2018-Jan-08 07:30N 41°10' E 001°49'2 3.0
2018-Jan-08 07:00N 41°09' E 001°47'1 2.9
2018-Jan-08 06:30N 41°09' E 001°45'1 2.8
2018-Jan-08 06:00N 41°09' E 001°43'  
2018-Jan-03 13:13N 41°13' E 001°44'0 0.0
2018-Jan-03 12:58N 41°13' E 001°44'0 0.0
2018-Jan-03 12:30N 41°13' E 001°44'3 4.9
2018-Jan-03 11:54N 41°10' E 001°45'2 2.1
2018-Jan-03 11:11N 41°09' E 001°46'1 2.9
2018-Jan-03 11:00N 41°09' E 001°46'1 2.9
2018-Jan-03 10:30N 41°09' E 001°48'2 2.9
2018-Jan-03 09:56N 41°09' E 001°50'3 0.7
2018-Jan-03 06:05N 41°11' E 001°49'211.4
2018-Jan-03 05:57N 41°12' E 001°47'3 4.0
2018-Jan-03 05:19N 41°13' E 001°44'  

Dump ship's entire track history